This is the latest recevied weather packets stored in our database for station/object N8QQQ. If no packets are shown the sender has not sent any weather packets the latest 10 day(s).
| Time | Temp. | Humidity | Pressure | Rain* | Wind** | Luminosity | Snow |
|---|---|---|---|---|---|---|---|
| 1777899678 | 12.22° C | 52% | 992.5 hPa | 0 mm | - | 68 W/m² | - |
| 1777899376 | 11.67° C | 53% | 992.4 hPa | 0 mm | - | 68 W/m² | - |
| 1777899073 | 11.67° C | 56% | 992.5 hPa | 0 mm | - | 83 W/m² | - |
| 1777898769 | 11.67° C | 56% | 992.5 hPa | 0 mm | - | 62 W/m² | - |
| 1777898467 | 11.11° C | 58% | 992.9 hPa | 0 mm | - | 95 W/m² | - |
| 1777898165 | 10.56° C | 61% | 992.7 hPa | 0 mm | - | 48 W/m² | - |
| 1777897862 | 10° C | 62% | 992.9 hPa | 0 mm | - | 37 W/m² | - |
| 1777897558 | 10° C | 64% | 993.1 hPa | 0 mm | - | 33 W/m² | - |
| 1777897253 | 9.44° C | 67% | 993.2 hPa | 0 mm | - | 37 W/m² | - |
| 1777896950 | 8.89° C | 68% | 993.3 hPa | 0 mm | - | 39 W/m² | - |
| 1777896647 | 8.89° C | 69% | 993.4 hPa | 0 mm | - | 40 W/m² | - |
| 1777896344 | 8.89° C | 71% | 993.6 hPa | 0 mm | - | 38 W/m² | - |
| 1777896042 | 8.33° C | 74% | 993.8 hPa | 0 mm | - | 33 W/m² | - |
| 1777895740 | 8.33° C | 75% | 993.8 hPa | 0 mm | - | 29 W/m² | - |
| 1777895436 | 8.33° C | 75% | 993.6 hPa | 0 mm | - | 29 W/m² | - |
| 1777895134 | 8.33° C | 74% | 993.8 hPa | 0 mm | - | 29 W/m² | - |
| 1777894831 | 7.78° C | 75% | 993.8 hPa | 0 mm | - | 24 W/m² | - |
| 1777894528 | 7.78° C | 76% | 994 hPa | 0 mm | - | 22 W/m² | - |
| 1777894226 | 7.78° C | 78% | 994.1 hPa | 0 mm | - | 19 W/m² | - |
| 1777893922 | 7.22° C | 80% | 994.3 hPa | 0 mm | - | 17 W/m² | - |
| 1777893619 | 7.78° C | 78% | 994.4 hPa | 0 mm | - | 15 W/m² | - |
| 1777893315 | 7.22° C | 80% | 994.5 hPa | 0 mm | - | 13 W/m² | - |
| 1777893011 | 7.22° C | 80% | 994.5 hPa | 0 mm | - | 10 W/m² | - |
| 1777892709 | 6.67° C | 82% | 994.7 hPa | 0 mm | - | 8 W/m² | - |
| 1777892404 | 6.67° C | 83% | 994.8 hPa | 0 mm | - | 6 W/m² | - |
* Rain latest hour (hover to see other rain measurements)
** Current wind speed in m/s (hover to see current wind gust speed)